sensor_id;sensor_type;location;lat;lon;timestamp;P1;durP1;ratioP1;P2;durP2;ratioP2
46753;SDS011;32500;50.620;3.400;2024-02-04T00:01:02;91.47;;;52.10;;
46753;SDS011;32500;50.620;3.400;2024-02-04T00:03:28;92.28;;;52.00;;
46753;SDS011;32500;50.620;3.400;2024-02-04T00:05:53;92.03;;;51.85;;
46753;SDS011;32500;50.620;3.400;2024-02-04T00:08:19;92.22;;;52.25;;
46753;SDS011;32500;50.620;3.400;2024-02-04T00:10:45;92.25;;;52.25;;
46753;SDS011;32500;50.620;3.400;2024-02-04T00:13:10;92.25;;;52.17;;
46753;SDS011;32500;50.620;3.400;2024-02-04T00:15:36;92.35;;;52.20;;
46753;SDS011;32500;50.620;3.400;2024-02-04T00:18:02;92.25;;;51.97;;
46753;SDS011;32500;50.620;3.400;2024-02-04T00:20:27;91.63;;;51.95;;
46753;SDS011;32500;50.620;3.400;2024-02-04T00:22:54;92.22;;;52.22;;
46753;SDS011;32500;50.620;3.400;2024-02-04T00:25:19;91.55;;;52.10;;
46753;SDS011;32500;50.620;3.400;2024-02-04T00:27:45;92.68;;;52.20;;
46753;SDS011;32500;50.620;3.400;2024-02-04T00:30:11;91.53;;;52.03;;
46753;SDS011;32500;50.620;3.400;2024-02-04T00:32:37;91.28;;;52.00;;
46753;SDS011;32500;50.620;3.400;2024-02-04T00:35:02;90.82;;;51.88;;
46753;SDS011;32500;50.620;3.400;2024-02-04T00:37:28;91.18;;;51.70;;
46753;SDS011;32500;50.620;3.400;2024-02-04T00:39:54;93.05;;;51.92;;
46753;SDS011;32500;50.620;3.400;2024-02-04T00:42:19;91.30;;;51.75;;
46753;SDS011;32500;50.620;3.400;2024-02-04T00:44:45;91.97;;;52.08;;
46753;SDS011;32500;50.620;3.400;2024-02-04T00:47:10;91.75;;;52.22;;
46753;SDS011;32500;50.620;3.400;2024-02-04T00:49:36;91.32;;;51.95;;
46753;SDS011;32500;50.620;3.400;2024-02-04T00:52:02;92.63;;;52.08;;
46753;SDS011;32500;50.620;3.400;2024-02-04T00:54:27;91.22;;;51.95;;
46753;SDS011;32500;50.620;3.400;2024-02-04T00:56:53;92.20;;;52.15;;
46753;SDS011;32500;50.620;3.400;2024-02-04T00:59:19;91.28;;;52.10;;
46753;SDS011;32500;50.620;3.400;2024-02-04T01:01:44;92.43;;;51.75;;
46753;SDS011;32500;50.620;3.400;2024-02-04T01:04:10;91.88;;;51.92;;
46753;SDS011;32500;50.620;3.400;2024-02-04T01:06:36;92.07;;;52.10;;
46753;SDS011;32500;50.620;3.400;2024-02-04T01:09:02;91.97;;;51.95;;
46753;SDS011;32500;50.620;3.400;2024-02-04T01:11:28;92.20;;;51.75;;
46753;SDS011;32500;50.620;3.400;2024-02-04T01:13:54;91.07;;;51.85;;
46753;SDS011;32500;50.620;3.400;2024-02-04T01:16:20;91.80;;;52.00;;
46753;SDS011;32500;50.620;3.400;2024-02-04T01:18:45;90.97;;;51.85;;
46753;SDS011;32500;50.620;3.400;2024-02-04T01:21:11;91.05;;;51.90;;
46753;SDS011;32500;50.620;3.400;2024-02-04T01:23:36;90.85;;;51.67;;
46753;SDS011;32500;50.620;3.400;2024-02-04T01:26:02;91.55;;;52.00;;
46753;SDS011;32500;50.620;3.400;2024-02-04T01:28:28;90.85;;;51.90;;
46753;SDS011;32500;50.620;3.400;2024-02-04T01:30:53;91.80;;;52.08;;
46753;SDS011;32500;50.620;3.400;2024-02-04T01:33:19;91.75;;;52.20;;
46753;SDS011;32500;50.620;3.400;2024-02-04T01:35:45;92.93;;;52.25;;
46753;SDS011;32500;50.620;3.400;2024-02-04T01:38:10;90.97;;;51.88;;
46753;SDS011;32500;50.620;3.400;2024-02-04T01:40:36;92.28;;;52.17;;
46753;SDS011;32500;50.620;3.400;2024-02-04T01:43:01;91.03;;;52.03;;
46753;SDS011;32500;50.620;3.400;2024-02-04T01:45:27;91.78;;;51.88;;
46753;SDS011;32500;50.620;3.400;2024-02-04T01:47:53;91.25;;;51.92;;
46753;SDS011;32500;50.620;3.400;2024-02-04T01:50:19;90.75;;;51.83;;
46753;SDS011;32500;50.620;3.400;2024-02-04T01:52:46;92.28;;;52.08;;
46753;SDS011;32500;50.620;3.400;2024-02-04T01:55:12;92.03;;;52.15;;
46753;SDS011;32500;50.620;3.400;2024-02-04T01:57:38;91.03;;;51.97;;
46753;SDS011;32500;50.620;3.400;2024-02-04T02:00:04;91.55;;;51.83;;
46753;SDS011;32500;50.620;3.400;2024-02-04T02:02:32;91.03;;;51.83;;
46753;SDS011;32500;50.620;3.400;2024-02-04T02:05:00;90.82;;;52.13;;
46753;SDS011;32500;50.620;3.400;2024-02-04T02:07:26;91.03;;;51.83;;
46753;SDS011;32500;50.620;3.400;2024-02-04T02:09:52;92.07;;;52.17;;
46753;SDS011;32500;50.620;3.400;2024-02-04T02:12:30;90.53;;;51.70;;
46753;SDS011;32500;50.620;3.400;2024-02-04T02:15:10;92.13;;;51.75;;
46753;SDS011;32500;50.620;3.400;2024-02-04T02:23:21;90.45;;;52.30;;
46753;SDS011;32500;50.620;3.400;2024-02-04T02:25:47;91.63;;;52.60;;
46753;SDS011;32500;50.620;3.400;2024-02-04T02:28:15;91.45;;;52.72;;
46753;SDS011;32500;50.620;3.400;2024-02-04T02:30:40;91.55;;;52.53;;
46753;SDS011;32500;50.620;3.400;2024-02-04T02:33:06;92.32;;;52.47;;
46753;SDS011;32500;50.620;3.400;2024-02-04T02:35:33;90.75;;;52.55;;
46753;SDS011;32500;50.620;3.400;2024-02-04T02:41:04;92.00;;;52.63;;
46753;SDS011;32500;50.620;3.400;2024-02-04T02:43:47;92.05;;;52.63;;
46753;SDS011;32500;50.620;3.400;2024-02-04T02:46:16;91.53;;;52.50;;
46753;SDS011;32500;50.620;3.400;2024-02-04T02:48:43;91.60;;;52.97;;
46753;SDS011;32500;50.620;3.400;2024-02-04T02:51:09;91.32;;;52.55;;
46753;SDS011;32500;50.620;3.400;2024-02-04T02:53:34;91.40;;;52.60;;
46753;SDS011;32500;50.620;3.400;2024-02-04T02:56:00;91.78;;;52.53;;
46753;SDS011;32500;50.620;3.400;2024-02-04T02:58:26;91.25;;;52.53;;
46753;SDS011;32500;50.620;3.400;2024-02-04T03:00:51;92.30;;;52.65;;
46753;SDS011;32500;50.620;3.400;2024-02-04T03:03:17;92.13;;;52.47;;
46753;SDS011;32500;50.620;3.400;2024-02-04T03:05:43;92.00;;;52.72;;
46753;SDS011;32500;50.620;3.400;2024-02-04T03:08:08;92.20;;;52.63;;
46753;SDS011;32500;50.620;3.400;2024-02-04T03:10:34;92.28;;;52.42;;
46753;SDS011;32500;50.620;3.400;2024-02-04T03:12:59;92.07;;;52.35;;
46753;SDS011;32500;50.620;3.400;2024-02-04T03:15:25;91.88;;;52.75;;
46753;SDS011;32500;50.620;3.400;2024-02-04T03:17:52;93.47;;;52.95;;
46753;SDS011;32500;50.620;3.400;2024-02-04T03:20:17;91.15;;;52.50;;
46753;SDS011;32500;50.620;3.400;2024-02-04T03:22:43;91.43;;;52.55;;
46753;SDS011;32500;50.620;3.400;2024-02-04T03:25:11;94.55;;;52.92;;
46753;SDS011;32500;50.620;3.400;2024-02-04T03:27:36;91.68;;;52.78;;
46753;SDS011;32500;50.620;3.400;2024-02-04T03:30:04;92.32;;;52.42;;
46753;SDS011;32500;50.620;3.400;2024-02-04T03:32:30;90.93;;;52.25;;
46753;SDS011;32500;50.620;3.400;2024-02-04T03:34:59;91.30;;;52.55;;
46753;SDS011;32500;50.620;3.400;2024-02-04T03:37:25;92.63;;;52.35;;
46753;SDS011;32500;50.620;3.400;2024-02-04T03:39:51;91.32;;;52.60;;
46753;SDS011;32500;50.620;3.400;2024-02-04T03:42:17;95.00;;;52.78;;
46753;SDS011;32500;50.620;3.400;2024-02-04T03:44:44;90.10;;;51.97;;
46753;SDS011;32500;50.620;3.400;2024-02-04T03:47:10;91.70;;;52.80;;
46753;SDS011;32500;50.620;3.400;2024-02-04T03:49:36;91.55;;;52.45;;
46753;SDS011;32500;50.620;3.400;2024-02-04T03:52:01;91.68;;;52.70;;
46753;SDS011;32500;50.620;3.400;2024-02-04T03:54:27;92.97;;;52.75;;
46753;SDS011;32500;50.620;3.400;2024-02-04T03:56:52;92.68;;;52.72;;
46753;SDS011;32500;50.620;3.400;2024-02-04T03:59:18;93.00;;;52.63;;
46753;SDS011;32500;50.620;3.400;2024-02-04T04:01:50;93.05;;;52.72;;
46753;SDS011;32500;50.620;3.400;2024-02-04T04:04:18;91.65;;;52.33;;
46753;SDS011;32500;50.620;3.400;2024-02-04T04:06:44;91.15;;;52.40;;
46753;SDS011;32500;50.620;3.400;2024-02-04T04:09:11;90.75;;;52.33;;
46753;SDS011;32500;50.620;3.400;2024-02-04T04:11:36;91.35;;;52.38;;
46753;SDS011;32500;50.620;3.400;2024-02-04T04:14:02;90.60;;;52.33;;
46753;SDS011;32500;50.620;3.400;2024-02-04T04:16:28;91.25;;;52.60;;
46753;SDS011;32500;50.620;3.400;2024-02-04T04:18:54;91.97;;;52.65;;
46753;SDS011;32500;50.620;3.400;2024-02-04T04:21:19;92.38;;;52.47;;
46753;SDS011;32500;50.620;3.400;2024-02-04T04:23:45;90.97;;;52.33;;
46753;SDS011;32500;50.620;3.400;2024-02-04T04:26:11;91.47;;;52.42;;
46753;SDS011;32500;50.620;3.400;2024-02-04T04:28:37;91.63;;;53.03;;
46753;SDS011;32500;50.620;3.400;2024-02-04T04:31:03;91.65;;;52.70;;
46753;SDS011;32500;50.620;3.400;2024-02-04T04:33:29;92.57;;;52.50;;
46753;SDS011;32500;50.620;3.400;2024-02-04T04:35:55;90.95;;;52.42;;
46753;SDS011;32500;50.620;3.400;2024-02-04T04:38:20;91.05;;;52.65;;
46753;SDS011;32500;50.620;3.400;2024-02-04T04:40:46;90.45;;;52.38;;
46753;SDS011;32500;50.620;3.400;2024-02-04T04:43:12;92.85;;;52.78;;
46753;SDS011;32500;50.620;3.400;2024-02-04T04:45:38;90.18;;;52.10;;
46753;SDS011;32500;50.620;3.400;2024-02-04T04:48:05;91.93;;;52.50;;
46753;SDS011;32500;50.620;3.400;2024-02-04T04:50:32;93.88;;;52.20;;
46753;SDS011;32500;50.620;3.400;2024-02-04T04:52:58;91.47;;;52.38;;
46753;SDS011;32500;50.620;3.400;2024-02-04T04:55:24;92.15;;;52.47;;
46753;SDS011;32500;50.620;3.400;2024-02-04T04:57:49;90.90;;;52.25;;
46753;SDS011;32500;50.620;3.400;2024-02-04T05:00:17;90.53;;;52.30;;
46753;SDS011;32500;50.620;3.400;2024-02-04T05:02:43;91.57;;;52.60;;
46753;SDS011;32500;50.620;3.400;2024-02-04T05:05:12;92.38;;;52.92;;
46753;SDS011;32500;50.620;3.400;2024-02-04T05:07:37;91.25;;;52.72;;
46753;SDS011;32500;50.620;3.400;2024-02-04T05:10:03;91.45;;;52.42;;
46753;SDS011;32500;50.620;3.400;2024-02-04T05:12:29;92.20;;;52.20;;
46753;SDS011;32500;50.620;3.400;2024-02-04T05:14:55;91.72;;;52.72;;
46753;SDS011;32500;50.620;3.400;2024-02-04T05:17:21;91.47;;;52.33;;
46753;SDS011;32500;50.620;3.400;2024-02-04T05:19:47;91.28;;;52.38;;
46753;SDS011;32500;50.620;3.400;2024-02-04T05:22:13;90.60;;;52.17;;
46753;SDS011;32500;50.620;3.400;2024-02-04T05:24:38;92.13;;;52.70;;
46753;SDS011;32500;50.620;3.400;2024-02-04T05:27:05;91.20;;;52.60;;
46753;SDS011;32500;50.620;3.400;2024-02-04T05:29:31;93.05;;;52.72;;
46753;SDS011;32500;50.620;3.400;2024-02-04T05:31:57;93.95;;;52.38;;
46753;SDS011;32500;50.620;3.400;2024-02-04T05:34:23;91.28;;;52.67;;
46753;SDS011;32500;50.620;3.400;2024-02-04T05:36:49;92.32;;;52.80;;
46753;SDS011;32500;50.620;3.400;2024-02-04T05:39:14;90.55;;;52.63;;
46753;SDS011;32500;50.620;3.400;2024-02-04T05:41:41;90.38;;;52.08;;
46753;SDS011;32500;50.620;3.400;2024-02-04T05:44:07;93.75;;;52.38;;
46753;SDS011;32500;50.620;3.400;2024-02-04T05:46:37;90.82;;;52.45;;
46753;SDS011;32500;50.620;3.400;2024-02-04T05:49:03;90.57;;;52.55;;
46753;SDS011;32500;50.620;3.400;2024-02-04T05:51:30;90.68;;;52.22;;
46753;SDS011;32500;50.620;3.400;2024-02-04T05:53:57;91.30;;;52.22;;
46753;SDS011;32500;50.620;3.400;2024-02-04T05:56:23;89.75;;;52.00;;
46753;SDS011;32500;50.620;3.400;2024-02-04T05:58:48;92.15;;;52.30;;
46753;SDS011;32500;50.620;3.400;2024-02-04T06:01:15;92.00;;;52.45;;
46753;SDS011;32500;50.620;3.400;2024-02-04T06:03:41;92.38;;;52.38;;
46753;SDS011;32500;50.620;3.400;2024-02-04T06:06:08;90.88;;;52.15;;
46753;SDS011;32500;50.620;3.400;2024-02-04T06:08:39;91.23;;;52.67;;
46753;SDS011;32500;50.620;3.400;2024-02-04T06:11:05;91.85;;;52.67;;
46753;SDS011;32500;50.620;3.400;2024-02-04T06:13:30;90.85;;;52.72;;
46753;SDS011;32500;50.620;3.400;2024-02-04T06:15:56;91.03;;;52.42;;
46753;SDS011;32500;50.620;3.400;2024-02-04T06:18:21;91.70;;;52.38;;
46753;SDS011;32500;50.620;3.400;2024-02-04T06:20:47;92.97;;;52.78;;
46753;SDS011;32500;50.620;3.400;2024-02-04T06:23:13;90.95;;;52.22;;
46753;SDS011;32500;50.620;3.400;2024-02-04T06:25:38;92.10;;;52.65;;
46753;SDS011;32500;50.620;3.400;2024-02-04T06:28:04;91.47;;;52.60;;
46753;SDS011;32500;50.620;3.400;2024-02-04T06:30:30;90.43;;;52.35;;
46753;SDS011;32500;50.620;3.400;2024-02-04T06:32:56;90.80;;;52.20;;
46753;SDS011;32500;50.620;3.400;2024-02-04T06:35:22;90.97;;;52.63;;
46753;SDS011;32500;50.620;3.400;2024-02-04T06:37:47;90.32;;;52.47;;
46753;SDS011;32500;50.620;3.400;2024-02-04T06:40:13;91.63;;;52.80;;
46753;SDS011;32500;50.620;3.400;2024-02-04T06:42:39;91.38;;;52.78;;
46753;SDS011;32500;50.620;3.400;2024-02-04T06:45:04;92.07;;;52.53;;
46753;SDS011;32500;50.620;3.400;2024-02-04T06:47:30;91.45;;;52.72;;
46753;SDS011;32500;50.620;3.400;2024-02-04T06:49:56;91.68;;;52.42;;
46753;SDS011;32500;50.620;3.400;2024-02-04T06:52:22;91.72;;;53.03;;
46753;SDS011;32500;50.620;3.400;2024-02-04T06:54:47;91.75;;;51.78;;
46753;SDS011;32500;50.620;3.400;2024-02-04T06:57:13;90.35;;;52.25;;
46753;SDS011;32500;50.620;3.400;2024-02-04T06:59:39;92.07;;;52.65;;
46753;SDS011;32500;50.620;3.400;2024-02-04T07:02:05;90.47;;;52.15;;
46753;SDS011;32500;50.620;3.400;2024-02-04T07:04:31;91.20;;;52.15;;
46753;SDS011;32500;50.620;3.400;2024-02-04T07:06:56;92.70;;;52.83;;
46753;SDS011;32500;50.620;3.400;2024-02-04T07:09:22;91.20;;;52.63;;
46753;SDS011;32500;50.620;3.400;2024-02-04T07:11:47;90.47;;;52.25;;
46753;SDS011;32500;50.620;3.400;2024-02-04T07:14:13;92.72;;;52.42;;
46753;SDS011;32500;50.620;3.400;2024-02-04T07:16:39;91.05;;;51.88;;
46753;SDS011;32500;50.620;3.400;2024-02-04T07:19:04;91.20;;;52.22;;
46753;SDS011;32500;50.620;3.400;2024-02-04T07:21:30;91.28;;;52.13;;
46753;SDS011;32500;50.620;3.400;2024-02-04T07:23:56;91.65;;;52.80;;
46753;SDS011;32500;50.620;3.400;2024-02-04T07:26:22;92.60;;;52.70;;
46753;SDS011;32500;50.620;3.400;2024-02-04T07:28:47;91.03;;;52.45;;
46753;SDS011;32500;50.620;3.400;2024-02-04T07:31:13;91.32;;;52.15;;
46753;SDS011;32500;50.620;3.400;2024-02-04T07:33:38;90.90;;;52.45;;
46753;SDS011;32500;50.620;3.400;2024-02-04T07:36:04;91.40;;;52.20;;
46753;SDS011;32500;50.620;3.400;2024-02-04T07:38:30;91.07;;;52.47;;
46753;SDS011;32500;50.620;3.400;2024-02-04T07:40:56;90.93;;;52.17;;
46753;SDS011;32500;50.620;3.400;2024-02-04T07:43:24;89.78;;;52.17;;
46753;SDS011;32500;50.620;3.400;2024-02-04T07:45:50;91.22;;;52.45;;
46753;SDS011;32500;50.620;3.400;2024-02-04T07:48:16;90.85;;;52.50;;
46753;SDS011;32500;50.620;3.400;2024-02-04T07:50:42;90.82;;;52.35;;
46753;SDS011;32500;50.620;3.400;2024-02-04T07:53:08;89.70;;;52.03;;
46753;SDS011;32500;50.620;3.400;2024-02-04T07:55:33;91.03;;;52.55;;
46753;SDS011;32500;50.620;3.400;2024-02-04T07:57:59;90.25;;;52.35;;
46753;SDS011;32500;50.620;3.400;2024-02-04T08:00:25;91.88;;;52.35;;
46753;SDS011;32500;50.620;3.400;2024-02-04T08:02:50;89.97;;;52.20;;
46753;SDS011;32500;50.620;3.400;2024-02-04T08:05:16;91.25;;;52.42;;
46753;SDS011;32500;50.620;3.400;2024-02-04T08:07:42;90.32;;;52.17;;
46753;SDS011;32500;50.620;3.400;2024-02-04T08:10:07;91.68;;;52.33;;
46753;SDS011;32500;50.620;3.400;2024-02-04T08:12:34;91.10;;;52.53;;
46753;SDS011;32500;50.620;3.400;2024-02-04T08:15:00;91.55;;;52.42;;
46753;SDS011;32500;50.620;3.400;2024-02-04T08:17:25;91.25;;;52.35;;
46753;SDS011;32500;50.620;3.400;2024-02-04T08:19:53;91.70;;;52.47;;
46753;SDS011;32500;50.620;3.400;2024-02-04T08:22:19;92.72;;;52.63;;
46753;SDS011;32500;50.620;3.400;2024-02-04T08:24:44;91.70;;;52.30;;
46753;SDS011;32500;50.620;3.400;2024-02-04T08:27:10;91.30;;;52.65;;
46753;SDS011;32500;50.620;3.400;2024-02-04T08:29:36;92.28;;;52.25;;
46753;SDS011;32500;50.620;3.400;2024-02-04T08:32:02;90.30;;;52.17;;
46753;SDS011;32500;50.620;3.400;2024-02-04T08:34:28;91.03;;;52.50;;
46753;SDS011;32500;50.620;3.400;2024-02-04T08:36:53;90.38;;;51.95;;
46753;SDS011;32500;50.620;3.400;2024-02-04T08:39:19;89.80;;;52.00;;
46753;SDS011;32500;50.620;3.400;2024-02-04T08:41:44;91.63;;;51.92;;
46753;SDS011;32500;50.620;3.400;2024-02-04T08:44:10;90.75;;;52.53;;
46753;SDS011;32500;50.620;3.400;2024-02-04T08:46:36;92.40;;;52.30;;
46753;SDS011;32500;50.620;3.400;2024-02-04T08:49:01;91.65;;;52.22;;
46753;SDS011;32500;50.620;3.400;2024-02-04T08:51:27;90.45;;;52.53;;
46753;SDS011;32500;50.620;3.400;2024-02-04T08:53:52;91.90;;;52.53;;
46753;SDS011;32500;50.620;3.400;2024-02-04T08:56:18;93.10;;;52.45;;
46753;SDS011;32500;50.620;3.400;2024-02-04T08:58:45;90.63;;;52.45;;
46753;SDS011;32500;50.620;3.400;2024-02-04T09:01:11;90.05;;;52.17;;
46753;SDS011;32500;50.620;3.400;2024-02-04T09:03:36;90.68;;;52.38;;
46753;SDS011;32500;50.620;3.400;2024-02-04T09:06:02;90.53;;;52.38;;
46753;SDS011;32500;50.620;3.400;2024-02-04T09:08:28;90.57;;;51.88;;
46753;SDS011;32500;50.620;3.400;2024-02-04T09:10:54;91.20;;;52.47;;
46753;SDS011;32500;50.620;3.400;2024-02-04T09:13:19;90.43;;;52.10;;
46753;SDS011;32500;50.620;3.400;2024-02-04T09:15:45;90.53;;;52.55;;
46753;SDS011;32500;50.620;3.400;2024-02-04T09:18:11;90.45;;;52.45;;
46753;SDS011;32500;50.620;3.400;2024-02-04T09:20:36;90.53;;;52.35;;
46753;SDS011;32500;50.620;3.400;2024-02-04T09:23:02;91.72;;;52.08;;
46753;SDS011;32500;50.620;3.400;2024-02-04T09:25:30;91.65;;;52.28;;
46753;SDS011;32500;50.620;3.400;2024-02-04T09:27:55;95.20;;;52.72;;
46753;SDS011;32500;50.620;3.400;2024-02-04T09:30:21;106.88;;;54.17;;
46753;SDS011;32500;50.620;3.400;2024-02-04T09:32:47;112.18;;;55.05;;
46753;SDS011;32500;50.620;3.400;2024-02-04T09:35:13;118.55;;;56.60;;
46753;SDS011;32500;50.620;3.400;2024-02-04T09:37:39;121.78;;;57.95;;
46753;SDS011;32500;50.620;3.400;2024-02-04T09:40:05;125.43;;;59.53;;
46753;SDS011;32500;50.620;3.400;2024-02-04T09:42:31;155.20;;;70.05;;
46753;SDS011;32500;50.620;3.400;2024-02-04T09:44:57;181.35;;;73.65;;
46753;SDS011;32500;50.620;3.400;2024-02-04T09:47:23;180.88;;;76.35;;
46753;SDS011;32500;50.620;3.400;2024-02-04T09:49:49;180.75;;;76.82;;
46753;SDS011;32500;50.620;3.400;2024-02-04T09:52:17;183.70;;;77.85;;
46753;SDS011;32500;50.620;3.400;2024-02-04T09:54:48;182.90;;;77.20;;
46753;SDS011;32500;50.620;3.400;2024-02-04T09:57:20;184.80;;;76.65;;
46753;SDS011;32500;50.620;3.400;2024-02-04T09:59:46;182.68;;;76.57;;
46753;SDS011;32500;50.620;3.400;2024-02-04T10:02:12;183.13;;;76.15;;
46753;SDS011;32500;50.620;3.400;2024-02-04T10:04:38;181.35;;;76.10;;
46753;SDS011;32500;50.620;3.400;2024-02-04T10:07:04;181.73;;;75.10;;
46753;SDS011;32500;50.620;3.400;2024-02-04T10:09:30;181.77;;;74.22;;
46753;SDS011;32500;50.620;3.400;2024-02-04T10:11:56;186.45;;;73.88;;
46753;SDS011;32500;50.620;3.400;2024-02-04T10:14:22;178.20;;;72.57;;
46753;SDS011;32500;50.620;3.400;2024-02-04T10:16:48;179.45;;;70.38;;
46753;SDS011;32500;50.620;3.400;2024-02-04T10:19:14;177.40;;;72.57;;
46753;SDS011;32500;50.620;3.400;2024-02-04T10:21:40;179.20;;;72.50;;
46753;SDS011;32500;50.620;3.400;2024-02-04T10:24:06;177.35;;;73.05;;
46753;SDS011;32500;50.620;3.400;2024-02-04T10:26:32;183.30;;;72.60;;
46753;SDS011;32500;50.620;3.400;2024-02-04T10:29:02;180.90;;;74.80;;
46753;SDS011;32500;50.620;3.400;2024-02-04T10:31:29;180.90;;;74.97;;
46753;SDS011;32500;50.620;3.400;2024-02-04T10:33:55;182.10;;;75.40;;
46753;SDS011;32500;50.620;3.400;2024-02-04T10:36:21;182.98;;;75.55;;
46753;SDS011;32500;50.620;3.400;2024-02-04T10:38:47;180.93;;;75.80;;
46753;SDS011;32500;50.620;3.400;2024-02-04T10:41:14;179.40;;;75.40;;
46753;SDS011;32500;50.620;3.400;2024-02-04T10:43:42;181.18;;;74.85;;
46753;SDS011;32500;50.620;3.400;2024-02-04T10:46:09;186.82;;;78.35;;
46753;SDS011;32500;50.620;3.400;2024-02-04T10:48:41;183.57;;;76.20;;
46753;SDS011;32500;50.620;3.400;2024-02-04T10:51:12;182.55;;;74.95;;
46753;SDS011;32500;50.620;3.400;2024-02-04T10:56:06;180.88;;;74.75;;
46753;SDS011;32500;50.620;3.400;2024-02-04T10:58:35;177.95;;;72.78;;
46753;SDS011;32500;50.620;3.400;2024-02-04T11:01:01;177.63;;;74.20;;
46753;SDS011;32500;50.620;3.400;2024-02-04T11:03:27;178.30;;;73.25;;
46753;SDS011;32500;50.620;3.400;2024-02-04T11:05:54;176.93;;;72.15;;
46753;SDS011;32500;50.620;3.400;2024-02-04T11:08:20;175.05;;;70.72;;
46753;SDS011;32500;50.620;3.400;2024-02-04T11:10:47;177.35;;;71.72;;
46753;SDS011;32500;50.620;3.400;2024-02-04T11:13:12;177.38;;;71.75;;
46753;SDS011;32500;50.620;3.400;2024-02-04T11:15:40;181.48;;;70.50;;
46753;SDS011;32500;50.620;3.400;2024-02-04T11:23:34;172.85;;;67.30;;
46753;SDS011;32500;50.620;3.400;2024-02-04T11:26:09;177.25;;;68.38;;
46753;SDS011;32500;50.620;3.400;2024-02-04T11:28:35;173.50;;;67.97;;
46753;SDS011;32500;50.620;3.400;2024-02-04T11:31:02;174.55;;;66.50;;
46753;SDS011;32500;50.620;3.400;2024-02-04T11:33:28;173.02;;;67.07;;
46753;SDS011;32500;50.620;3.400;2024-02-04T11:36:06;172.32;;;66.85;;
46753;SDS011;32500;50.620;3.400;2024-02-04T11:38:35;168.85;;;64.15;;
46753;SDS011;32500;50.620;3.400;2024-02-04T11:41:02;166.80;;;65.95;;
46753;SDS011;32500;50.620;3.400;2024-02-04T11:43:28;167.57;;;65.13;;
46753;SDS011;32500;50.620;3.400;2024-02-04T11:45:57;167.93;;;65.28;;
46753;SDS011;32500;50.620;3.400;2024-02-04T11:48:28;165.05;;;64.93;;
46753;SDS011;32500;50.620;3.400;2024-02-04T11:50:58;163.10;;;63.35;;
46753;SDS011;32500;50.620;3.400;2024-02-04T11:53:28;164.35;;;64.32;;
46753;SDS011;32500;50.620;3.400;2024-02-04T11:55:57;164.25;;;62.95;;
46753;SDS011;32500;50.620;3.400;2024-02-04T11:58:24;162.85;;;63.20;;
46753;SDS011;32500;50.620;3.400;2024-02-04T12:00:51;164.15;;;63.92;;
46753;SDS011;32500;50.620;3.400;2024-02-04T12:03:27;162.68;;;63.22;;
46753;SDS011;32500;50.620;3.400;2024-02-04T12:05:57;162.10;;;63.08;;
46753;SDS011;32500;50.620;3.400;2024-02-04T12:08:24;161.70;;;62.97;;
46753;SDS011;32500;50.620;3.400;2024-02-04T12:10:52;162.00;;;62.25;;
46753;SDS011;32500;50.620;3.400;2024-02-04T12:13:18;159.60;;;62.20;;
46753;SDS011;32500;50.620;3.400;2024-02-04T12:15:45;159.77;;;62.65;;
46753;SDS011;32500;50.620;3.400;2024-02-04T12:18:12;160.30;;;62.22;;
46753;SDS011;32500;50.620;3.400;2024-02-04T12:20:39;160.65;;;62.95;;
46753;SDS011;32500;50.620;3.400;2024-02-04T12:23:05;159.63;;;61.97;;
46753;SDS011;32500;50.620;3.400;2024-02-04T12:25:32;158.93;;;62.28;;
46753;SDS011;32500;50.620;3.400;2024-02-04T12:27:59;157.23;;;61.45;;
46753;SDS011;32500;50.620;3.400;2024-02-04T12:30:26;158.23;;;61.92;;
46753;SDS011;32500;50.620;3.400;2024-02-04T12:32:57;159.30;;;61.55;;
46753;SDS011;32500;50.620;3.400;2024-02-04T12:35:24;157.48;;;60.25;;
46753;SDS011;32500;50.620;3.400;2024-02-04T12:37:53;157.57;;;60.88;;
46753;SDS011;32500;50.620;3.400;2024-02-04T12:40:24;155.85;;;60.85;;
46753;SDS011;32500;50.620;3.400;2024-02-04T12:43:00;157.27;;;60.80;;
46753;SDS011;32500;50.620;3.400;2024-02-04T12:45:26;156.68;;;61.17;;
46753;SDS011;32500;50.620;3.400;2024-02-04T12:47:54;156.27;;;60.90;;
46753;SDS011;32500;50.620;3.400;2024-02-04T12:50:21;154.80;;;60.83;;
46753;SDS011;32500;50.620;3.400;2024-02-04T12:52:47;154.43;;;60.30;;
46753;SDS011;32500;50.620;3.400;2024-02-04T12:55:25;156.80;;;60.55;;
46753;SDS011;32500;50.620;3.400;2024-02-04T13:00:33;155.85;;;60.58;;
46753;SDS011;32500;50.620;3.400;2024-02-04T13:03:00;155.40;;;59.72;;
46753;SDS011;32500;50.620;3.400;2024-02-04T13:05:26;155.35;;;59.90;;
46753;SDS011;32500;50.620;3.400;2024-02-04T13:07:55;153.95;;;59.47;;
46753;SDS011;32500;50.620;3.400;2024-02-04T13:10:25;153.67;;;59.60;;
46753;SDS011;32500;50.620;3.400;2024-02-04T13:12:59;155.55;;;60.22;;
46753;SDS011;32500;50.620;3.400;2024-02-04T13:15:28;156.00;;;59.85;;
46753;SDS011;32500;50.620;3.400;2024-02-04T13:17:54;153.35;;;59.55;;
46753;SDS011;32500;50.620;3.400;2024-02-04T13:20:21;153.60;;;59.28;;
46753;SDS011;32500;50.620;3.400;2024-02-04T13:22:47;152.77;;;59.67;;
46753;SDS011;32500;50.620;3.400;2024-02-04T13:25:13;151.90;;;59.22;;
46753;SDS011;32500;50.620;3.400;2024-02-04T13:27:38;153.45;;;59.40;;
46753;SDS011;32500;50.620;3.400;2024-02-04T13:30:05;152.18;;;59.47;;
46753;SDS011;32500;50.620;3.400;2024-02-04T13:35:04;152.25;;;59.33;;
46753;SDS011;32500;50.620;3.400;2024-02-04T13:37:31;151.98;;;58.90;;
46753;SDS011;32500;50.620;3.400;2024-02-04T13:39:56;152.00;;;59.33;;
46753;SDS011;32500;50.620;3.400;2024-02-04T13:42:22;154.13;;;59.03;;
46753;SDS011;32500;50.620;3.400;2024-02-04T13:44:48;151.43;;;59.25;;
46753;SDS011;32500;50.620;3.400;2024-02-04T13:47:14;152.45;;;59.47;;
46753;SDS011;32500;50.620;3.400;2024-02-04T13:49:39;151.10;;;59.17;;
46753;SDS011;32500;50.620;3.400;2024-02-04T13:52:05;152.25;;;58.70;;
46753;SDS011;32500;50.620;3.400;2024-02-04T13:54:31;151.70;;;59.10;;
46753;SDS011;32500;50.620;3.400;2024-02-04T13:56:56;150.95;;;58.58;;
46753;SDS011;32500;50.620;3.400;2024-02-04T13:59:22;149.57;;;58.55;;
46753;SDS011;32500;50.620;3.400;2024-02-04T14:01:48;150.52;;;58.72;;
46753;SDS011;32500;50.620;3.400;2024-02-04T14:04:15;151.70;;;59.03;;
46753;SDS011;32500;50.620;3.400;2024-02-04T14:06:40;151.93;;;59.00;;
46753;SDS011;32500;50.620;3.400;2024-02-04T14:09:06;149.20;;;58.60;;
46753;SDS011;32500;50.620;3.400;2024-02-04T14:11:32;149.57;;;58.58;;
46753;SDS011;32500;50.620;3.400;2024-02-04T14:13:58;149.57;;;58.30;;
46753;SDS011;32500;50.620;3.400;2024-02-04T14:16:23;150.45;;;58.55;;
46753;SDS011;32500;50.620;3.400;2024-02-04T14:18:50;148.50;;;58.17;;
46753;SDS011;32500;50.620;3.400;2024-02-04T14:21:15;149.88;;;58.75;;
46753;SDS011;32500;50.620;3.400;2024-02-04T14:23:41;149.55;;;58.72;;
46753;SDS011;32500;50.620;3.400;2024-02-04T14:26:08;152.52;;;58.25;;
46753;SDS011;32500;50.620;3.400;2024-02-04T14:28:44;148.13;;;58.33;;
46753;SDS011;32500;50.620;3.400;2024-02-04T14:31:10;149.07;;;58.45;;
46753;SDS011;32500;50.620;3.400;2024-02-04T14:33:35;148.40;;;58.35;;